This is the latest recevied weather packets stored in our database for station/object DK4EP-10. If no packets are shown the sender has not sent any weather packets the latest 10 day(s).
| Time | Temp. | Humidity | Pressure | Rain* | Wind** | Luminosity | Snow |
|---|---|---|---|---|---|---|---|
| 1777364737 | 15° C | 50% | 1001 hPa | - | - | - | - |
| 1777363836 | 13.89° C | 53% | 1001 hPa | - | - | - | - |
| 1777362935 | 13.33° C | 49% | 1001 hPa | - | - | - | - |
| 1777362034 | 13.33° C | 51% | 1001 hPa | - | - | - | - |
| 1777361133 | 11.67° C | 54% | 1001 hPa | - | - | - | - |
| 1777360232 | 11.67° C | 55% | 1000 hPa | - | - | - | - |
| 1777359330 | 10.56° C | 57% | 1000 hPa | - | - | - | - |
| 1777358429 | 10° C | 57% | 1001 hPa | - | - | - | - |
| 1777357528 | 10.56° C | 55% | 1000 hPa | - | - | - | - |
| 1777356627 | 10° C | 58% | 1000 hPa | - | - | - | - |
| 1777355725 | 10° C | 57% | 1000 hPa | - | - | - | - |
| 1777354824 | 9.44° C | 60% | 1000 hPa | - | - | - | - |
| 1777353923 | 8.89° C | 62% | 1000 hPa | - | - | - | - |
| 1777353022 | 7.22° C | 67% | 1000 hPa | - | - | - | - |
| 1777352121 | 4.44° C | 79% | 1000 hPa | - | - | - | - |
| 1777351220 | 3.33° C | 85% | 1000 hPa | - | - | - | - |
| 1777350318 | 2.78° C | 86% | 1000 hPa | - | - | - | - |
| 1777349417 | 2.78° C | 87% | 1000 hPa | - | - | - | - |
| 1777348516 | 2.78° C | 88% | 1000 hPa | - | - | - | - |
| 1777347615 | 2.78° C | 88% | 1000 hPa | - | - | - | - |
| 1777346714 | 2.78° C | 88% | 1000 hPa | - | - | - | - |
| 1777345813 | 2.78° C | 89% | 999 hPa | - | - | - | - |
| 1777344911 | 2.78° C | 89% | 999 hPa | - | - | - | - |
| 1777344010 | 2.22° C | 94% | 999 hPa | - | - | - | - |
| 1777343109 | 1.67° C | 97% | 999 hPa | - | - | - | - |
* Rain since midnight (hover to see other rain measurements)
** Current wind speed in m/s (hover to see current wind gust speed)